Time;durP1;ratioP1;P1;durP2;ratioP2;P2;SDS_P1;SDS_P2;PMS_P1;PMS_P2;Temp;Humidity;BMP_temperature;BMP_pressure;BME280_temperature;BME280_humidity;BME280_pressure;Samples;Min_cycle;Max_cycle;Signal;HPM_P1;HPM_P2
2022/01/10 00:00:19;;;;;;;;;;;1.70;85.10;;;;;;5109277;28;20261;-66
2022/01/10 00:02:45;;;;;;;;;;;1.80;85.30;;;;;;5110859;28;19908;-66
2022/01/10 00:05:11;;;;;;;;;;;1.70;85.10;;;;;;5110533;28;19995;-66
2022/01/10 00:07:36;;;;;;;;;;;1.80;85.00;;;;;;5110468;28;20405;-66
2022/01/10 00:10:03;;;;;;;;;;;1.80;84.80;;;;;;5110370;28;19915;-66
2022/01/10 00:12:28;;;;;;;;;;;1.80;84.80;;;;;;5110379;28;20003;-66
2022/01/10 00:14:54;;;;;;;;;;;1.90;84.60;;;;;;5110267;28;20006;-66
2022/01/10 00:17:20;;;;;;;;;;;1.90;84.70;;;;;;5110312;28;19908;-66
2022/01/10 00:19:45;;;;;;;;;;;1.90;84.80;;;;;;5110282;28;19908;-66
2022/01/10 00:22:11;;;;;;;;;;;1.90;84.50;;;;;;5110466;28;20361;-66
2022/01/10 00:24:37;;;;;;;;;;;1.90;84.50;;;;;;5110431;28;19908;-66
2022/01/10 00:27:03;;;;;;;;;;;1.90;84.50;;;;;;5110017;28;20366;-66
2022/01/10 00:29:28;;;;;;;;;;;2.00;84.00;;;;;;5110028;28;19912;-66
2022/01/10 00:31:57;;;;;;;;;;;2.00;83.50;;;;;;5110020;28;19915;-66
2022/01/10 00:34:23;;;;;;;;;;;2.10;82.90;;;;;;5109664;28;19919;-66
2022/01/10 00:36:49;;;;;;;;;;;2.00;82.60;;;;;;5108944;28;19919;-66
2022/01/10 00:39:14;;;;;;;;;;;2.10;82.60;;;;;;5109898;28;20342;-66
2022/01/10 00:41:40;;;;;;;;;;;2.00;82.60;;;;;;5109813;28;20385;-66
2022/01/10 00:44:06;;;;;;;;;;;2.00;82.40;;;;;;5109781;28;19920;-66
2022/01/10 00:46:32;;;;;;;;;;;2.00;82.30;;;;;;5097701;28;20427;-66
2022/01/10 00:48:57;;;;;;;;;;;2.00;81.60;;;;;;5096126;28;19908;-66
2022/01/10 00:54:16;;;;;;;;;;;2.00;81.60;;;;;;5111057;27;19912;-67
2022/01/10 01:20:42;;;;;;;;;;;2.00;81.10;;;;;;5111091;27;19953;-67
2022/01/10 01:25:23;;;;;;;;;;;2.00;82.20;;;;;;5111131;27;19912;-66
2022/01/10 02:34:28;;;;;;;;;;;2.00;82.00;;;;;;5111055;27;20267;-66
2022/01/10 02:38:06;;;;;;;;;;;2.30;77.10;;;;;;5111113;27;19912;-66
2022/01/10 02:40:33;;;;;;;;;;;2.30;78.00;;;;;;5111015;28;20007;-65
2022/01/10 02:42:59;;;;;;;;;;;2.30;78.30;;;;;;5110895;28;19962;-66
2022/01/10 02:45:25;;;;;;;;;;;2.30;77.00;;;;;;5110927;28;19912;-66
2022/01/10 02:47:50;;;;;;;;;;;2.30;77.10;;;;;;5110822;28;20344;-65
2022/01/10 02:50:17;;;;;;;;;;;2.40;75.40;;;;;;5110840;28;19954;-66
2022/01/10 06:53:35;;;;;;;;;;;2.90;73.90;;;;;;5099789;27;19922;-67
2022/01/10 06:56:01;;;;;;;;;;;1.00;86.70;;;;;;5121573;28;19912;-67
2022/01/10 06:58:27;;;;;;;;;;;0.90;86.90;;;;;;5089004;28;19916;-67
2022/01/10 07:00:52;;;;;;;;;;;0.90;87.10;;;;;;5088879;28;19920;-67
2022/01/10 07:03:18;;;;;;;;;;;0.90;87.10;;;;;;5088640;28;19912;-67
2022/01/10 07:05:43;;;;;;;;;;;0.80;87.10;;;;;;5098325;28;20283;-68
2022/01/10 07:08:09;;;;;;;;;;;0.90;87.10;;;;;;5083053;28;19912;-68
2022/01/10 07:10:34;;;;;;;;;;;1.00;86.70;;;;;;5088940;28;19919;-67
2022/01/10 07:13:00;;;;;;;;;;;1.00;86.90;;;;;;5089071;28;19960;-67
2022/01/10 07:15:26;;;;;;;;;;;1.10;86.80;;;;;;5087931;28;20332;-66
2022/01/10 07:17:52;;;;;;;;;;;1.20;86.00;;;;;;5088937;28;19913;-67
2022/01/10 07:20:18;;;;;;;;;;;1.20;85.70;;;;;;5086802;28;19920;-66
2022/01/10 07:22:43;;;;;;;;;;;1.00;86.40;;;;;;5089010;28;20049;-66
2022/01/10 07:25:09;;;;;;;;;;;0.90;87.20;;;;;;5088996;28;19966;-66
2022/01/10 07:27:34;;;;;;;;;;;0.70;87.40;;;;;;5089366;28;19913;-67
2022/01/10 07:30:02;;;;;;;;;;;0.80;87.80;;;;;;5089041;28;19919;-67
2022/01/10 07:32:29;;;;;;;;;;;0.80;87.60;;;;;;5088285;28;19935;-67
2022/01/10 07:34:55;;;;;;;;;;;0.80;87.40;;;;;;5088361;28;19922;-67
2022/01/10 07:37:21;;;;;;;;;;;0.70;87.30;;;;;;5088168;28;19974;-67
2022/01/10 07:39:48;;;;;;;;;;;0.80;87.20;;;;;;5086800;28;20371;-67
2022/01/10 07:42:13;;;;;;;;;;;0.90;87.00;;;;;;5074513;28;19960;-68
2022/01/10 07:44:39;;;;;;;;;;;1.00;86.90;;;;;;5088918;28;19954;-67
2022/01/10 07:47:04;;;;;;;;;;;1.10;86.80;;;;;;5089509;28;20003;-68
2022/01/10 07:49:30;;;;;;;;;;;1.40;85.90;;;;;;5088155;28;19908;-68
2022/01/10 07:51:57;;;;;;;;;;;1.40;85.00;;;;;;5088388;28;20138;-67
2022/01/10 07:54:24;;;;;;;;;;;1.50;84.60;;;;;;5087803;28;19956;-69
2022/01/10 08:02:42;;;;;;;;;;;1.60;83.90;;;;;;5098979;27;19922;-67
2022/01/10 08:10:13;;;;;;;;;;;1.50;82.20;;;;;;5117827;27;19916;-73
2022/01/10 08:12:39;;;;;;;;;;;1.50;80.90;;;;;;5105086;28;19918;-66
2022/01/10 08:15:04;;;;;;;;;;;1.50;80.90;;;;;;5109728;28;20319;-66
